Chugwater, WY (82210)

5:48 AM MDT on August 20, 2014 (GMT -0600)
Torrington Municipal | Change Station
CLOSE
Current Station
Airport
Location: Torrington,
Elevation: 4206 ft
Nearby Weather Stations

Elev 4206 ft 42.06 °N, 104.15 °W | Updated 55 minutes ago

Mostly Cloudy
Mostly Cloudy
68 °F
Feels Like 68 °F
N
0
Wind Variable Wind from North

Today
High -- | Low -- °F
--% Chance of Precip.
Yesterday
High -- | Low -- °F
Precip. -- in
6:12 AM 7:51 PM
Waning Crescent, 22% visible
Pressure 29.67 in
Visibility 10.0 miles
Clouds Mostly Cloudy 11000 ft
Dew Point 51 °F
Humidity 55%
Rainfall 0.00 in
Snow Depth Not available.
UV 0 out of 12
Pollen 10.00 out of 12
Air Quality Not available.
Flu Activity Not available.
METAR KTOR 201053Z AUTO 00000KT 10SM BKN110 20/11 A2983 RMK AO2 SLP046 T02000106

More Conditions Fewer Conditions

Pressure 29.67 in
Visibility 10.0 miles
Clouds Mostly Cloudy 11000 ft
Dew Point 51 °F
Humidity 55%
Rainfall 0.00 in
Snow Depth Not available.
UV 0 out of 12
Pollen 10.00 out of 12
Air Quality Not available.
Flu Activity Not available.
METAR KTOR 201053Z AUTO 00000KT 10SM BKN110 20/11 A2983 RMK AO2 SLP046 T02000106

More Conditions Fewer Conditions

10-Day Weather Forecast

Almanac

Astronomy

Aug. 20, 2014 Rise Set
Actual Time 6:12 AM MDT 7:51 PM MDT
Civil Twilight 5:43 AM MDT 8:20 PM MDT
Nautical Twilight 5:07 AM MDT 8:56 PM MDT
Astronomical Twilight 4:29 AM MDT 9:34 PM MDT
Moon 1:53 AM MDT 4:39 PM MDT
Length of Visible Light 14h 37m
Length of Day
13h 38m
Tomorrow will be 2m 33s shorter.
Waning Crescent, 22% of the Moon is Illuminated
Today
Waning Crescent
Aug 25
New
Sep 2
First Quarter
Sep 8
Full
Sep 15
Last Quarter

Today's Extremes

State Highs State Lows

Community

WunderPhotos

Upload Photos

1,745,611 photos uploaded!

WunderBlogs® & News

By Dr. Jeff Masters
Director of Meteorology, Weather Underground
By Kari Strenfel
Meteorologist, Weather Underground
By Christopher C. Burt
Weather Historian, Weather Underground
August 20, 2014
August 20, 2014
August 20, 2014

Nearby

Snow Depth

Station Depth Elevation
Crow Creek 1 in 8330 ft
Whiskey Park 0 in 8950 ft
Brooklyn Lake 0 in 10220 ft
Sand Lake 0 in 10050 ft
Cinnabar Park 1 in 9690 ft

Earthquake Activity

City Distance Mag. Time & Date
No recent earthquake activity has been reported nearby.
Minimum magnitude displayed is 2.5.

Coastal Water Temperatures

Place Temperature
No Stations Reporting

Nearby Weather Stations